createdAt,value
2018-02-08T04:31:38.659Z,55.97
2018-02-08T04:34:06.359Z,59.20
2018-02-08T04:36:34.842Z,58.67
2018-02-08T04:39:15.231Z,53.85
2018-02-08T04:41:54.895Z,53.20
2018-02-08T04:44:34.683Z,54.13
2018-02-08T04:47:23.218Z,58.70
2018-02-08T04:49:50.967Z,58.05
2018-02-08T04:52:18.677Z,53.75
2018-02-08T04:54:46.375Z,54.92
2018-02-08T04:57:14.083Z,57.25
2018-02-08T04:59:41.798Z,56.75
2018-02-08T05:02:25.872Z,57.15
2018-02-08T05:04:54.381Z,54.58
2018-02-08T05:07:22.859Z,51.85
2018-02-08T05:09:51.338Z,54.58
2018-02-08T05:12:19.791Z,51.92
2018-02-08T05:14:47.481Z,47.62
2018-02-08T05:17:16.023Z,49.08
2018-02-08T05:19:43.731Z,49.63
2018-02-08T05:22:11.494Z,51.72
2018-02-08T05:24:39.960Z,51.58
2018-02-08T05:27:08.435Z,54.35
2018-02-08T05:29:36.194Z,56.17
2018-02-08T05:32:03.909Z,56.95
2018-02-08T05:34:31.618Z,53.55
2018-02-08T05:36:59.382Z,53.80
2018-02-08T05:39:27.126Z,55.22
2018-02-08T05:41:56.359Z,57.40
2018-02-08T05:44:24.183Z,55.33
2018-02-08T05:46:51.890Z,56.80
2018-02-08T05:49:22.599Z,55.63
2018-02-08T05:51:50.492Z,58.05
2018-02-08T05:54:18.179Z,54.40
2018-02-08T05:56:45.866Z,56.95
2018-02-08T05:59:13.599Z,57.05
2018-02-08T06:01:41.307Z,61.30
2018-02-08T06:04:08.995Z,59.67
2018-02-08T06:06:37.487Z,58.90
2018-02-08T06:09:05.175Z,54.70
2018-02-08T06:11:32.902Z,54.63
2018-02-08T06:14:00.662Z,56.90
2018-02-08T06:16:28.353Z,56.65
2018-02-08T06:18:56.037Z,61.22
2018-02-08T06:21:23.800Z,57.05
2018-02-08T06:23:51.522Z,55.55
2018-02-08T06:26:19.235Z,54.42
2018-02-08T06:28:46.969Z,55.08
2018-02-08T06:31:14.695Z,53.72
2018-02-08T06:33:42.406Z,53.40
2018-02-08T06:36:10.123Z,53.78
2018-02-08T06:38:37.850Z,55.63
2018-02-08T06:41:05.563Z,53.40
2018-02-08T06:43:33.255Z,58.58
2018-02-08T06:46:01.735Z,52.88
2018-02-08T06:48:29.438Z,53.87
2018-02-08T06:50:57.911Z,54.63
2018-02-08T06:53:26.390Z,52.67
2018-02-08T06:55:54.839Z,50.63
2018-02-08T06:58:22.575Z,53.30
2018-02-08T07:00:50.259Z,57.28
2018-02-08T07:03:17.970Z,52.80
2018-02-08T07:05:45.691Z,53.72
2018-02-08T07:08:13.379Z,54.63
2018-02-08T07:10:41.923Z,53.30
2018-02-08T07:13:09.788Z,54.20
2018-02-08T07:15:37.653Z,51.55
2018-02-08T07:18:05.416Z,52.13
2018-02-08T07:20:33.281Z,53.25
2018-02-08T07:23:01.188Z,52.28
2018-02-08T07:25:29.831Z,51.85
2018-02-08T07:27:57.594Z,49.47
2018-02-08T07:30:25.461Z,52.10
2018-02-08T07:32:53.324Z,51.13
2018-02-08T07:35:21.088Z,48.90
2018-02-08T07:37:48.850Z,50.90
2018-02-08T07:40:16.715Z,51.30
2018-02-08T07:42:44.479Z,52.38
2018-02-08T07:45:12.344Z,49.22
2018-02-08T07:47:40.209Z,51.47
2018-02-08T07:50:07.972Z,49.65
2018-02-08T07:52:35.736Z,48.72
2018-02-08T07:55:03.602Z,49.85
2018-02-08T07:57:31.363Z,49.88
2018-02-08T07:59:59.125Z,50.12
2018-02-08T08:02:26.992Z,48.28
2018-02-08T08:04:54.755Z,48.80
2018-02-08T08:07:22.571Z,48.60
2018-02-08T08:09:50.383Z,54.08
2018-02-08T08:12:18.146Z,51.75
2018-02-08T08:14:46.011Z,48.50
2018-02-08T08:17:13.877Z,50.38
2018-02-08T08:19:41.639Z,51.15
2018-02-08T08:22:09.558Z,50.67
2018-02-08T08:24:38.087Z,48.97
2018-02-08T08:27:05.953Z,50.33
2018-02-08T08:29:33.718Z,49.88
2018-02-08T08:32:01.581Z,49.65
2018-02-08T08:34:29.448Z,49.95
2018-02-08T08:36:57.314Z,51.13
2018-02-08T08:39:25.177Z,51.13
2018-02-08T08:41:53.042Z,51.33
2018-02-08T08:44:20.806Z,51.90
2018-02-08T08:46:48.670Z,51.95
2018-02-08T08:49:16.432Z,53.83
2018-02-08T08:51:44.141Z,55.50
2018-02-08T08:54:12.622Z,51.28
2018-02-08T08:56:41.103Z,51.17
2018-02-08T08:59:09.555Z,52.00
2018-02-08T09:01:37.267Z,54.38
2018-02-08T09:04:04.998Z,51.95
2018-02-08T09:06:33.451Z,55.53
2018-02-08T09:09:01.219Z,57.00
2018-02-08T09:11:28.911Z,57.00
2018-02-08T09:13:57.359Z,53.20
2018-02-08T09:16:25.071Z,59.92
2018-02-08T09:18:52.833Z,55.67
2018-02-08T09:21:20.551Z,59.13
2018-02-08T09:23:48.239Z,59.17
2018-02-08T09:26:16.696Z,53.20
2018-02-08T09:28:44.408Z,55.92
2018-02-08T09:31:12.114Z,57.30
2018-02-08T09:33:39.898Z,56.37
2018-02-08T09:36:08.367Z,58.50
2018-02-08T09:38:36.913Z,57.42
2018-02-08T09:41:04.623Z,54.05
2018-02-08T09:43:33.095Z,58.45
2018-02-08T09:46:01.570Z,58.33
2018-02-08T09:48:30.090Z,56.53
2018-02-08T09:50:57.798Z,56.90
2018-02-08T09:53:25.489Z,56.40
2018-02-08T09:55:53.207Z,57.85
2018-02-08T09:58:20.918Z,60.42
2018-02-08T10:00:48.635Z,56.55
2018-02-08T10:03:16.418Z,57.70
2018-02-08T10:05:44.903Z,57.38
2018-02-08T10:08:13.364Z,59.45
2018-02-08T10:10:41.096Z,60.08
2018-02-08T10:13:08.782Z,57.10
2018-02-08T10:15:36.471Z,55.88
2018-02-08T10:18:04.995Z,58.58
2018-02-08T10:20:32.704Z,56.90
2018-02-08T10:23:01.178Z,54.75
2018-02-08T10:25:28.924Z,57.40
2018-02-08T10:27:56.634Z,57.00
2018-02-08T10:30:24.345Z,59.35
2018-02-08T10:32:52.103Z,55.38
2018-02-08T10:35:19.815Z,55.83
2018-02-08T10:37:47.499Z,57.42
2018-02-08T10:40:15.239Z,54.20
2018-02-08T10:42:43.065Z,50.63
2018-02-08T10:45:10.751Z,53.15
2018-02-08T10:47:39.227Z,50.78
2018-02-08T10:50:07.736Z,50.72
2018-02-08T10:52:35.543Z,55.22
2018-02-08T10:55:03.242Z,52.25
2018-02-08T10:57:31.766Z,55.10
2018-02-08T10:59:59.446Z,49.85
2018-02-08T11:02:27.151Z,41.30
2018-02-08T11:04:54.878Z,41.15
2018-02-08T11:07:22.563Z,43.30
2018-02-08T11:09:51.035Z,44.10
2018-02-08T11:12:19.583Z,47.15
2018-02-08T11:14:47.294Z,48.40
2018-02-08T11:17:14.983Z,50.63
2018-02-08T11:19:42.738Z,43.80
2018-02-08T11:22:10.427Z,41.28
2018-02-08T11:24:38.103Z,44.00
2018-02-08T11:27:05.847Z,44.10
2018-02-08T11:29:33.530Z,42.25
2018-02-08T11:32:01.213Z,40.60
2018-02-08T11:34:29.704Z,40.90
2018-02-08T11:36:58.155Z,39.58
2018-02-08T11:39:25.837Z,42.55
2018-02-08T11:41:54.350Z,42.90
2018-02-08T11:44:22.035Z,39.70
2018-02-08T11:46:49.742Z,41.97
2018-02-08T11:49:18.267Z,42.15
2018-02-08T11:51:45.963Z,42.60
2018-02-08T11:54:13.663Z,45.90
2018-02-08T11:56:41.418Z,41.40
2018-02-08T11:59:09.103Z,43.55
2018-02-08T12:01:36.790Z,42.40
2018-02-08T12:04:05.319Z,43.10
2018-02-08T12:06:33.029Z,46.92
2018-02-08T12:09:01.542Z,46.10
2018-02-08T12:11:30.073Z,44.55
2018-02-08T12:13:57.779Z,42.38
2018-02-08T12:16:25.462Z,42.10
2018-02-08T12:18:53.967Z,43.67
2018-02-08T12:21:21.653Z,42.78
2018-02-08T12:23:49.335Z,43.72
2018-02-08T12:26:17.059Z,42.70
2018-02-08T12:28:44.758Z,41.67
2018-02-08T12:31:12.552Z,42.08
2018-02-08T12:33:40.268Z,39.83
2018-02-08T12:36:07.979Z,43.45
2018-02-08T12:38:35.770Z,41.83
2018-02-08T12:41:03.479Z,42.78
2018-02-08T12:43:31.948Z,44.45
2018-02-08T12:45:59.698Z,45.42
2018-02-08T12:48:27.407Z,44.50
2018-02-08T12:50:55.098Z,43.20
2018-02-08T12:53:22.830Z,42.05
2018-02-08T12:55:50.517Z,43.95
2018-02-08T12:58:18.204Z,43.38
2018-02-08T13:00:45.939Z,44.60
2018-02-08T13:03:13.642Z,46.35
2018-02-08T13:05:41.350Z,40.42
2018-02-08T13:08:09.111Z,41.37
2018-02-08T13:10:36.818Z,41.80
2018-02-08T13:13:04.546Z,40.83
2018-02-08T13:15:32.283Z,40.28
2018-02-08T13:18:00.816Z,39.60
2018-02-08T13:20:28.679Z,43.25
2018-02-08T13:22:56.548Z,39.95
2018-02-08T13:25:24.308Z,40.10
2018-02-08T13:27:52.176Z,41.72
2018-02-08T13:30:19.936Z,38.88
2018-02-08T13:32:47.643Z,41.75
2018-02-08T13:35:16.287Z,39.47
2018-02-08T13:37:45.806Z,43.40
2018-02-08T13:40:17.336Z,47.62
2018-02-08T13:42:45.252Z,46.55
2018-02-08T13:45:13.784Z,48.10
2018-02-08T13:47:54.450Z,45.92
2018-02-08T13:53:42.267Z,46.17
2018-02-08T13:56:25.659Z,48.22
2018-02-08T13:58:59.879Z,48.28
2018-02-08T14:01:31.043Z,45.60
2018-02-08T14:03:58.723Z,45.90
2018-02-08T14:06:26.405Z,46.58
2018-02-08T14:08:54.143Z,43.60
2018-02-08T14:11:21.847Z,43.95
2018-02-08T14:13:49.554Z,48.03
2018-02-08T14:16:17.271Z,45.63
2018-02-08T14:18:44.953Z,44.10
2018-02-08T14:21:13.448Z,45.60
2018-02-08T14:23:41.178Z,45.12
2018-02-08T14:26:08.867Z,46.72
2018-02-08T14:28:37.339Z,44.75
2018-02-08T14:31:05.946Z,45.00
2018-02-08T14:33:33.636Z,44.35
2018-02-08T14:36:02.132Z,46.63
2018-02-08T14:38:29.883Z,44.70
2018-02-08T14:40:57.594Z,47.53
2018-02-08T14:43:26.073Z,48.05
2018-02-08T14:45:53.835Z,47.90
2018-02-08T14:48:22.283Z,45.72
2018-02-08T14:50:49.991Z,47.47
2018-02-08T14:53:17.726Z,48.65
2018-02-08T14:55:46.202Z,45.85
2018-02-08T14:58:13.906Z,45.05
2018-02-08T15:00:41.641Z,45.12
2018-02-08T15:03:09.355Z,45.60
2018-02-08T15:05:37.084Z,43.25
2018-02-08T15:08:04.775Z,46.83
2018-02-08T15:10:32.499Z,45.28
2018-02-08T15:13:00.231Z,43.87
2018-02-08T15:15:27.952Z,44.45
2018-02-08T15:17:55.647Z,46.72
2018-02-08T15:20:23.413Z,45.03
2018-02-08T15:22:51.104Z,45.25
2018-02-08T15:25:19.633Z,41.83
2018-02-08T15:27:47.399Z,43.00
2018-02-08T15:30:15.095Z,42.45
2018-02-08T15:32:43.565Z,43.85
2018-02-08T15:35:11.407Z,40.55
2018-02-08T15:37:39.166Z,44.00
2018-02-08T15:40:06.930Z,44.90
2018-02-08T15:42:34.620Z,42.97
2018-02-08T15:45:03.103Z,43.65
2018-02-08T15:47:31.629Z,41.22
2018-02-08T15:49:59.342Z,42.70
2018-02-08T15:52:27.818Z,42.25
2018-02-08T15:54:55.604Z,42.53
2018-02-08T15:57:24.078Z,43.92
2018-02-08T15:59:52.555Z,45.58
2018-02-08T16:02:21.071Z,43.25
2018-02-08T16:04:48.787Z,43.00
2018-02-08T16:07:17.271Z,42.30
2018-02-08T16:09:45.751Z,43.87
2018-02-08T16:12:14.210Z,42.38
2018-02-08T16:14:41.944Z,48.05
2018-02-08T16:17:09.650Z,45.90
2018-02-08T16:19:38.205Z,46.58
2018-02-08T16:22:06.067Z,50.25
2018-02-08T16:24:33.834Z,46.72
2018-02-08T16:27:01.694Z,44.92
2018-02-08T16:29:29.559Z,45.55
2018-02-08T16:31:57.425Z,43.08
2018-02-08T16:34:25.290Z,44.95
2018-02-08T16:36:53.052Z,44.08
2018-02-08T16:39:20.870Z,43.45
2018-02-08T16:41:48.735Z,48.20
2018-02-08T16:44:16.547Z,47.05
2018-02-08T16:46:44.412Z,45.80
2018-02-08T16:49:12.277Z,47.22
2018-02-08T16:51:40.143Z,47.80
2018-02-08T16:54:08.111Z,47.17
2018-02-08T16:56:35.980Z,48.10
2018-02-08T16:59:03.841Z,44.47
2018-02-08T17:01:31.706Z,42.80
2018-02-08T17:03:59.469Z,43.63
2018-02-08T17:06:27.234Z,45.12
2018-02-08T17:08:55.097Z,47.05
2018-02-08T17:11:22.860Z,49.05
2018-02-08T17:13:50.726Z,44.47
2018-02-08T17:16:18.488Z,45.20
2018-02-08T17:18:46.251Z,42.62
2018-02-08T17:21:14.070Z,44.53
2018-02-08T17:23:41.879Z,40.42
2018-02-08T17:26:09.745Z,42.20
2018-02-08T17:28:37.454Z,45.50
2018-02-08T17:31:05.206Z,43.65
2018-02-08T17:33:33.722Z,45.03
2018-02-08T17:36:01.408Z,45.38
2018-02-08T17:38:29.091Z,44.47
2018-02-08T17:40:56.807Z,43.20
2018-02-08T17:43:24.516Z,45.97
2018-02-08T17:45:52.207Z,44.90
2018-02-08T17:48:20.727Z,43.95
2018-02-08T17:50:48.419Z,48.92
2018-02-08T17:53:16.192Z,46.17
2018-02-08T17:55:43.948Z,45.38
2018-02-08T17:58:11.664Z,45.03
2018-02-08T18:00:39.355Z,48.70
2018-02-08T18:03:07.221Z,53.28
2018-02-08T18:05:34.941Z,56.40
2018-02-08T18:08:02.656Z,53.75
2018-02-08T18:10:30.371Z,52.13
2018-02-08T18:12:58.059Z,52.17
2018-02-08T18:15:25.765Z,50.95
2018-02-08T18:17:53.507Z,46.70
2018-02-08T18:20:21.223Z,45.15
2018-02-08T18:22:48.959Z,48.22
2018-02-08T18:25:16.676Z,47.40
2018-02-08T18:27:44.384Z,45.70
2018-02-08T18:30:12.175Z,49.47
2018-02-08T18:32:39.869Z,48.55
2018-02-08T18:35:07.612Z,46.70
2018-02-08T18:37:36.230Z,42.35
2018-02-08T18:40:04.705Z,49.22
2018-02-08T18:42:32.398Z,51.45
2018-02-08T18:45:00.909Z,47.53
2018-02-08T18:47:28.619Z,45.90
2018-02-08T18:49:57.075Z,43.75
2018-02-08T18:52:24.811Z,43.95
2018-02-08T18:54:52.503Z,43.60
2018-02-08T18:57:20.259Z,43.13
2018-02-08T18:59:47.955Z,45.28
2018-02-08T19:02:16.403Z,46.05
2018-02-08T19:04:44.163Z,45.40
2018-02-08T19:07:11.922Z,46.40
2018-02-08T19:09:39.743Z,46.17
2018-02-08T19:12:07.492Z,44.88
2018-02-08T19:14:36.159Z,46.45
2018-02-08T19:17:06.457Z,47.13
2018-02-08T19:19:35.114Z,49.05
2018-02-08T19:22:02.808Z,46.05
2018-02-08T19:24:30.518Z,45.25
2018-02-08T19:26:58.299Z,43.75
2018-02-08T19:29:25.992Z,43.10
2018-02-08T19:31:53.706Z,41.50
2018-02-08T19:34:21.504Z,41.90
2018-02-08T19:36:49.199Z,45.92
2018-02-08T19:39:17.652Z,43.47
2018-02-08T19:41:45.363Z,47.30
2018-02-08T19:44:13.055Z,44.58
2018-02-08T19:46:41.607Z,47.13
2018-02-08T19:49:09.338Z,45.12
2018-02-08T19:51:37.051Z,45.15
2018-02-08T19:54:04.766Z,45.08
2018-02-08T19:56:33.249Z,47.20
2018-02-08T19:59:01.797Z,46.40
2018-02-08T20:01:29.663Z,44.95
2018-02-08T20:03:57.527Z,42.95
2018-02-08T20:06:25.392Z,46.20
2018-02-08T20:08:53.462Z,46.20
2018-02-08T20:11:21.328Z,45.58
2018-02-08T20:13:49.193Z,47.88
2018-02-08T20:16:17.058Z,46.65
2018-02-08T20:18:44.924Z,46.58
2018-02-08T20:21:12.789Z,44.55
2018-02-08T20:23:40.654Z,44.08
2018-02-08T20:26:08.519Z,44.97
2018-02-08T20:28:36.384Z,48.22
2018-02-08T20:31:10.267Z,48.83
2018-02-08T20:33:38.055Z,44.20
2018-02-08T20:36:05.958Z,46.30
2018-02-08T20:38:34.427Z,48.10
2018-02-08T20:41:02.134Z,57.05
2018-02-08T20:43:31.654Z,52.55
2018-02-08T20:45:59.347Z,49.17
2018-02-08T20:48:27.055Z,49.55
2018-02-08T20:50:54.790Z,47.53
2018-02-08T20:53:23.266Z,58.03
2018-02-08T20:55:51.720Z,48.08
2018-02-08T20:58:19.575Z,49.92
2018-02-08T21:00:47.441Z,63.60
2018-02-08T21:03:15.305Z,55.08
2018-02-08T21:05:43.990Z,49.35
2018-02-08T21:08:11.860Z,45.22
2018-02-08T21:10:39.721Z,43.87
2018-02-08T21:13:07.596Z,44.17
2018-02-08T21:15:35.453Z,41.45
2018-02-08T21:18:03.216Z,45.75
2018-02-08T21:20:31.079Z,40.55
2018-02-08T21:22:58.843Z,38.72
2018-02-08T21:25:26.708Z,37.88
2018-02-08T21:27:54.575Z,40.22
2018-02-08T21:30:22.438Z,40.85
2018-02-08T21:32:50.129Z,39.13
2018-02-08T21:35:17.872Z,42.85
2018-02-08T21:37:45.556Z,38.78
2018-02-08T21:40:14.198Z,40.15
2018-02-08T21:42:41.948Z,37.60
2018-02-08T21:45:09.643Z,40.38
2018-02-08T21:47:37.331Z,37.63
2018-02-08T21:50:05.851Z,37.97
2018-02-08T21:52:33.540Z,37.55
2018-02-08T21:55:01.286Z,38.83
2018-02-08T21:57:29.008Z,35.88
2018-02-08T21:59:56.699Z,38.47
2018-02-08T22:02:24.403Z,39.80
2018-02-08T22:04:52.119Z,39.15
2018-02-08T22:07:19.906Z,40.28
2018-02-08T22:09:47.650Z,42.78
2018-02-08T22:12:15.330Z,40.42
2018-02-08T22:14:43.035Z,36.65
2018-02-08T22:17:11.535Z,35.58
2018-02-08T22:19:39.239Z,38.53
2018-02-08T22:22:06.981Z,38.50
2018-02-08T22:24:34.668Z,37.97
2018-02-08T22:27:02.371Z,38.17
2018-02-08T22:29:30.223Z,35.80
2018-02-08T22:31:58.696Z,36.22
2018-02-08T22:34:27.174Z,34.67
2018-02-08T22:36:55.732Z,32.22
2018-02-08T22:39:23.434Z,37.03
2018-02-08T22:41:51.907Z,35.55
2018-02-08T22:44:20.380Z,33.83
2018-02-08T22:46:48.847Z,33.35
2018-02-08T22:49:16.615Z,35.45
2018-02-08T22:51:44.323Z,36.25
2018-02-08T22:54:12.049Z,34.95
2018-02-08T22:56:40.528Z,37.53
2018-02-08T22:59:08.999Z,38.83
2018-02-08T23:01:37.470Z,40.92
2018-02-08T23:04:05.204Z,37.03
2018-02-08T23:06:32.886Z,40.03
2018-02-08T23:09:00.590Z,39.40
2018-02-08T23:11:28.348Z,39.80
2018-02-08T23:13:56.806Z,39.55
2018-02-08T23:16:24.519Z,37.90
2018-02-08T23:18:52.266Z,39.08
2018-02-08T23:21:19.974Z,37.95
2018-02-08T23:23:47.679Z,35.63
2018-02-08T23:26:15.415Z,37.05
2018-02-08T23:28:43.119Z,40.53
